createdAt,value
2019-03-23T00:01:54.466Z,6.20
2019-03-23T00:04:22.737Z,5.97
2019-03-23T00:06:51.103Z,5.50
2019-03-23T00:09:19.393Z,5.30
2019-03-23T00:11:47.952Z,4.97
2019-03-23T00:14:16.551Z,5.03
2019-03-23T00:16:44.839Z,7.13
2019-03-23T00:19:13.109Z,5.87
2019-03-23T00:21:41.667Z,6.13
2019-03-23T00:24:09.945Z,5.13
2019-03-23T00:26:38.527Z,5.63
2019-03-23T00:29:06.811Z,5.20
2019-03-23T00:31:35.113Z,5.27
2019-03-23T00:34:03.662Z,4.73
2019-03-23T00:36:40.994Z,4.60
2019-03-23T00:39:02.269Z,5.23
2019-03-23T00:41:30.849Z,5.00
2019-03-23T00:43:59.127Z,4.50
2019-03-23T00:46:27.415Z,5.00
2019-03-23T00:48:55.692Z,6.50
2019-03-23T00:51:24.279Z,4.53
2019-03-23T00:53:52.561Z,4.70
2019-03-23T00:56:20.858Z,5.07
2019-03-23T00:58:49.132Z,4.90
2019-03-23T01:01:17.901Z,3.93
2019-03-23T01:03:46.487Z,5.03
2019-03-23T01:06:14.768Z,6.07
2019-03-23T01:08:43.103Z,5.37
2019-03-23T01:11:11.706Z,5.93
2019-03-23T01:13:39.998Z,5.73
2019-03-23T01:16:08.289Z,5.73
2019-03-23T01:18:36.840Z,5.33
2019-03-23T01:21:05.125Z,4.93
2019-03-23T01:23:33.707Z,5.47
2019-03-23T01:26:02.116Z,6.10
2019-03-23T01:28:30.877Z,5.80
2019-03-23T01:30:59.155Z,5.33
2019-03-23T01:33:27.446Z,5.07
2019-03-23T01:35:55.721Z,5.60
2019-03-23T01:38:24.013Z,5.20
2019-03-23T01:40:52.303Z,4.87
2019-03-23T01:43:20.595Z,4.40
2019-03-23T01:45:48.871Z,4.80
2019-03-23T01:48:17.487Z,4.13
2019-03-23T01:50:45.770Z,4.33
2019-03-23T01:53:14.054Z,4.13
2019-03-23T01:55:42.632Z,5.93
2019-03-23T01:58:10.916Z,7.80
2019-03-23T02:00:39.259Z,6.13
2019-03-23T02:03:07.505Z,5.53
2019-03-23T02:05:35.794Z,4.87
2019-03-23T02:08:04.142Z,5.03
2019-03-23T02:10:32.426Z,4.93
2019-03-23T02:13:00.709Z,4.60
2019-03-23T02:15:29.002Z,4.67
2019-03-23T02:17:57.274Z,4.67
2019-03-23T02:20:25.900Z,4.13
2019-03-23T02:22:54.176Z,4.10
2019-03-23T02:25:22.475Z,3.87
2019-03-23T02:27:50.749Z,4.83
2019-03-23T02:30:19.049Z,4.07
2019-03-23T02:32:47.333Z,5.13
2019-03-23T02:35:15.638Z,5.77
2019-03-23T02:37:43.913Z,5.20
2019-03-23T02:40:12.735Z,5.40
2019-03-23T02:42:41.014Z,4.47
2019-03-23T02:45:14.318Z,4.77
2019-03-23T02:47:43.010Z,4.67
2019-03-23T02:50:11.580Z,4.77
2019-03-23T02:52:39.950Z,5.10
2019-03-23T02:55:09.459Z,5.40
2019-03-23T02:57:38.066Z,5.20
2019-03-23T03:00:14.367Z,5.57
2019-03-23T03:02:42.987Z,5.10
2019-03-23T03:05:11.640Z,5.67
2019-03-23T03:07:42.603Z,5.57
2019-03-23T03:10:12.182Z,8.27
2019-03-23T03:12:40.474Z,21.33
2019-03-23T03:15:09.403Z,8.30
2019-03-23T03:17:37.695Z,9.90
2019-03-23T03:20:08.184Z,14.93
2019-03-23T03:22:36.489Z,33.37
2019-03-23T03:25:09.032Z,41.53
2019-03-23T03:27:37.646Z,45.40
2019-03-23T03:30:09.130Z,49.70
2019-03-23T03:32:37.770Z,53.23
2019-03-23T03:35:06.326Z,57.30
2019-03-23T03:37:34.613Z,59.37
2019-03-23T03:40:03.008Z,58.60
2019-03-23T03:42:31.278Z,58.73
2019-03-23T03:44:59.654Z,56.17
2019-03-23T03:47:28.295Z,59.80
2019-03-23T03:49:56.568Z,56.37
2019-03-23T03:52:25.015Z,57.17
2019-03-23T03:54:53.329Z,58.70
2019-03-23T03:57:21.620Z,57.80
2019-03-23T03:59:49.925Z,57.63
2019-03-23T04:02:18.227Z,59.30
2019-03-23T04:04:46.532Z,57.17
2019-03-23T04:07:14.819Z,57.27
2019-03-23T04:09:43.109Z,56.67
2019-03-23T04:12:11.759Z,57.67
2019-03-23T04:14:40.322Z,59.87
2019-03-23T04:17:08.626Z,61.03
2019-03-23T04:19:36.921Z,60.77
2019-03-23T04:22:05.571Z,62.77
2019-03-23T04:24:33.865Z,62.53
2019-03-23T04:27:03.810Z,60.83
2019-03-23T04:29:32.474Z,60.77
2019-03-23T04:32:00.803Z,59.90
2019-03-23T04:34:29.392Z,58.57
2019-03-23T04:36:57.690Z,58.33
2019-03-23T04:39:25.988Z,58.77
2019-03-23T04:41:54.635Z,56.57
2019-03-23T04:44:22.939Z,58.00
2019-03-23T04:46:51.233Z,57.37
2019-03-23T04:49:19.538Z,60.07
2019-03-23T04:51:47.829Z,59.77
2019-03-23T04:54:16.991Z,61.70
2019-03-23T04:56:45.292Z,58.57
2019-03-23T04:59:13.592Z,58.40
2019-03-23T05:01:41.886Z,60.40
2019-03-23T05:04:10.192Z,60.00
2019-03-23T05:06:38.481Z,57.40
2019-03-23T05:09:08.818Z,58.70
2019-03-23T05:11:37.114Z,60.87
2019-03-23T05:14:05.403Z,60.87
2019-03-23T05:16:33.710Z,60.80
2019-03-23T05:19:02.007Z,60.23
2019-03-23T05:21:30.310Z,57.80
2019-03-23T05:23:58.598Z,59.53
2019-03-23T05:26:26.903Z,62.03
2019-03-23T05:28:55.198Z,62.30
2019-03-23T05:31:23.503Z,62.73
2019-03-23T05:33:51.793Z,61.07
2019-03-23T05:36:20.109Z,60.40
2019-03-23T05:38:48.396Z,58.70
2019-03-23T05:41:16.699Z,61.77
2019-03-23T05:43:45.329Z,61.27
2019-03-23T05:46:13.958Z,61.90
2019-03-23T05:48:42.204Z,61.80
2019-03-23T05:51:10.503Z,64.90
2019-03-23T05:53:38.796Z,62.67
2019-03-23T05:56:07.168Z,61.40
2019-03-23T05:58:35.456Z,61.53
2019-03-23T06:01:03.751Z,62.30
2019-03-23T06:03:32.063Z,62.43
2019-03-23T06:06:00.631Z,61.10
2019-03-23T06:08:28.937Z,61.67
2019-03-23T06:10:57.233Z,63.63
2019-03-23T06:13:25.542Z,62.97
2019-03-23T06:15:53.826Z,64.20
2019-03-23T06:18:22.447Z,65.30
2019-03-23T06:20:50.741Z,63.83
2019-03-23T06:23:19.394Z,64.67
2019-03-23T06:25:47.684Z,65.60
2019-03-23T06:28:15.983Z,64.10
2019-03-23T06:30:44.342Z,67.37
2019-03-23T06:33:12.649Z,65.33
2019-03-23T06:35:40.941Z,66.17
2019-03-23T06:38:09.251Z,64.57
2019-03-23T06:40:37.540Z,66.33
2019-03-23T06:43:05.829Z,68.10
2019-03-23T06:45:34.500Z,65.83
2019-03-23T06:48:03.080Z,68.57
2019-03-23T06:50:31.686Z,67.77
2019-03-23T06:52:59.983Z,65.37
2019-03-23T06:55:28.292Z,67.13
2019-03-23T06:57:56.905Z,65.63
2019-03-23T07:00:25.197Z,62.10
2019-03-23T07:02:53.479Z,65.17
2019-03-23T07:05:22.140Z,64.37
2019-03-23T07:07:50.724Z,65.47
2019-03-23T07:10:19.030Z,65.97
2019-03-23T07:12:47.318Z,63.07
2019-03-23T07:15:20.271Z,63.30
2019-03-23T07:17:45.707Z,64.00
2019-03-23T07:20:14.454Z,64.10
2019-03-23T07:22:42.822Z,67.90
2019-03-23T07:25:12.061Z,67.50
2019-03-23T07:27:40.417Z,69.30
2019-03-23T07:30:12.201Z,64.73
2019-03-23T07:32:40.492Z,67.70
2019-03-23T07:35:09.528Z,68.43
2019-03-23T07:37:38.135Z,67.67
2019-03-23T07:40:08.873Z,62.40
2019-03-23T07:42:37.177Z,65.63
2019-03-23T07:45:10.515Z,64.20
2019-03-23T07:47:38.811Z,66.10
2019-03-23T07:50:09.484Z,64.87
2019-03-23T07:52:37.804Z,65.03
2019-03-23T07:55:16.622Z,64.67
2019-03-23T07:57:44.995Z,65.53
2019-03-23T08:00:22.540Z,63.57
2019-03-23T08:02:50.839Z,64.77
2019-03-23T08:05:19.524Z,61.57
2019-03-23T08:07:48.149Z,63.83
2019-03-23T08:10:30.068Z,62.57
2019-03-23T08:12:58.372Z,60.43
2019-03-23T08:15:26.744Z,61.17
2019-03-23T08:17:55.589Z,64.73
2019-03-23T08:20:24.524Z,59.83
2019-03-23T08:22:54.119Z,59.07
2019-03-23T08:25:22.716Z,59.60
2019-03-23T08:27:51.292Z,60.67
2019-03-23T08:30:19.623Z,59.33
2019-03-23T08:32:47.881Z,60.00
2019-03-23T08:35:16.180Z,59.03
2019-03-23T08:37:44.729Z,59.50
2019-03-23T08:40:13.026Z,62.63
2019-03-23T08:42:41.338Z,58.63
2019-03-23T08:45:09.646Z,59.40
2019-03-23T08:47:38.223Z,59.90
2019-03-23T08:50:07.459Z,61.73
2019-03-23T08:52:35.773Z,60.60
2019-03-23T08:55:04.847Z,60.73
2019-03-23T08:57:33.533Z,58.57
2019-03-23T09:00:01.795Z,58.90
2019-03-23T09:02:30.364Z,58.50
2019-03-23T09:04:58.655Z,62.07
2019-03-23T09:07:27.286Z,60.07
2019-03-23T09:09:59.463Z,59.77
2019-03-23T09:12:25.918Z,57.33
2019-03-23T09:14:54.608Z,56.87
2019-03-23T09:17:22.902Z,58.20
2019-03-23T09:19:51.459Z,55.90
2019-03-23T09:22:19.748Z,56.53
2019-03-23T09:24:48.069Z,55.10
2019-03-23T09:27:16.369Z,52.63
2019-03-23T09:29:44.678Z,54.83
2019-03-23T09:32:13.244Z,53.17
2019-03-23T09:34:41.556Z,52.53
2019-03-23T09:37:09.844Z,51.83
2019-03-23T09:39:38.410Z,50.30
2019-03-23T09:42:07.180Z,52.13
2019-03-23T09:44:36.717Z,52.07
2019-03-23T09:47:05.348Z,49.50
2019-03-23T09:49:33.779Z,49.93
2019-03-23T09:52:02.160Z,48.73
2019-03-23T09:54:30.555Z,48.87
2019-03-23T09:56:59.665Z,47.90
2019-03-23T09:59:28.419Z,47.37
2019-03-23T10:01:58.442Z,47.13
2019-03-23T10:04:26.761Z,44.97
2019-03-23T10:06:55.100Z,44.67
2019-03-23T10:09:23.410Z,45.70
2019-03-23T10:11:51.706Z,46.03
2019-03-23T10:14:20.292Z,46.33
2019-03-23T10:16:49.639Z,45.83
2019-03-23T10:19:17.955Z,45.10
2019-03-23T10:21:46.262Z,45.47
2019-03-23T10:24:14.567Z,44.27
2019-03-23T10:26:42.860Z,45.37
2019-03-23T10:29:11.166Z,42.17
2019-03-23T10:31:39.461Z,43.57
2019-03-23T10:34:08.010Z,42.83
2019-03-23T10:36:36.314Z,41.77
2019-03-23T10:39:05.777Z,42.70
2019-03-23T10:41:34.335Z,42.77
2019-03-23T10:44:02.662Z,43.90
2019-03-23T10:46:30.955Z,43.97
2019-03-23T10:48:59.264Z,45.13
2019-03-23T10:51:27.585Z,41.87
2019-03-23T10:53:56.099Z,45.07
2019-03-23T10:56:24.394Z,44.50
2019-03-23T10:58:52.695Z,45.13
2019-03-23T11:01:20.984Z,43.30
2019-03-23T11:03:49.292Z,44.73
2019-03-23T11:06:17.836Z,44.90
2019-03-23T11:08:46.402Z,46.07
2019-03-23T11:11:14.951Z,46.57
2019-03-23T11:13:43.262Z,49.23
2019-03-23T11:16:11.565Z,49.80
2019-03-23T11:18:39.970Z,45.77
2019-03-23T11:21:08.268Z,45.40
2019-03-23T11:23:36.568Z,44.77
2019-03-23T11:26:04.960Z,46.17
2019-03-23T11:28:33.257Z,43.57
2019-03-23T11:31:01.563Z,43.40
2019-03-23T11:33:29.858Z,43.17
2019-03-23T11:35:58.350Z,43.13
2019-03-23T11:38:26.643Z,42.83
2019-03-23T11:40:55.336Z,44.70
2019-03-23T11:43:23.813Z,43.20
2019-03-23T11:45:52.442Z,48.53
2019-03-23T11:48:20.807Z,46.60
2019-03-23T11:50:49.127Z,43.83
2019-03-23T11:53:17.425Z,45.37
2019-03-23T11:55:46.073Z,49.07
2019-03-23T11:58:14.643Z,46.03
2019-03-23T12:00:43.282Z,45.77
2019-03-23T12:03:11.594Z,46.43
2019-03-23T12:05:45.472Z,46.23
2019-03-23T12:08:14.024Z,46.03
2019-03-23T12:10:42.412Z,43.23
2019-03-23T12:13:10.721Z,43.70
2019-03-23T12:15:39.025Z,43.00
2019-03-23T12:18:07.612Z,43.30
2019-03-23T12:20:35.917Z,43.80
2019-03-23T12:23:04.540Z,44.63
2019-03-23T12:25:32.830Z,46.50
2019-03-23T12:28:01.145Z,43.13
2019-03-23T12:30:29.440Z,43.27
2019-03-23T12:32:57.826Z,44.80
2019-03-23T12:35:26.111Z,46.90
2019-03-23T12:37:54.441Z,44.43
2019-03-23T12:40:22.727Z,44.33
2019-03-23T12:42:51.312Z,44.90
2019-03-23T12:45:19.862Z,47.63
2019-03-23T12:47:48.172Z,48.80
2019-03-23T12:50:16.529Z,49.70
2019-03-23T12:52:44.837Z,50.33
2019-03-23T12:55:13.380Z,48.40
2019-03-23T12:57:41.689Z,49.13
2019-03-23T13:00:15.798Z,49.53
2019-03-23T13:02:44.183Z,47.67
2019-03-23T13:05:12.545Z,47.20
2019-03-23T13:07:41.097Z,46.10
2019-03-23T13:10:14.396Z,43.90
2019-03-23T13:12:42.775Z,39.23
2019-03-23T13:15:13.439Z,37.80
2019-03-23T13:17:41.746Z,36.27
2019-03-23T13:20:10.432Z,38.00
2019-03-23T13:22:39.156Z,37.53
2019-03-23T13:25:08.786Z,36.60
2019-03-23T13:27:37.159Z,38.63
2019-03-23T13:30:11.316Z,38.57
2019-03-23T13:32:39.630Z,36.13
2019-03-23T13:35:07.994Z,36.53
2019-03-23T13:37:36.303Z,36.13
2019-03-23T13:40:07.031Z,35.90
2019-03-23T13:42:35.342Z,36.30
2019-03-23T13:45:04.674Z,36.80
2019-03-23T13:47:32.991Z,37.20
2019-03-23T13:50:01.295Z,38.20
2019-03-23T13:52:29.603Z,38.50
2019-03-23T13:54:57.897Z,36.77
2019-03-23T13:57:26.207Z,38.40
2019-03-23T13:59:54.505Z,39.17
2019-03-23T14:02:22.818Z,38.53
2019-03-23T14:04:51.373Z,38.97
2019-03-23T14:07:19.679Z,38.50
2019-03-23T14:09:47.971Z,37.47
2019-03-23T14:12:16.280Z,38.43
2019-03-23T14:14:44.577Z,40.13
2019-03-23T14:17:12.880Z,37.67
2019-03-23T14:19:41.179Z,37.20
2019-03-23T14:22:09.488Z,38.27
2019-03-23T14:24:37.783Z,37.70
2019-03-23T14:27:06.095Z,38.73
2019-03-23T14:29:34.387Z,39.53
2019-03-23T14:32:02.690Z,39.43
2019-03-23T14:34:31.003Z,38.77
2019-03-23T14:36:59.318Z,39.07
2019-03-23T14:39:27.608Z,38.10
2019-03-23T14:42:04.453Z,40.33
2019-03-23T14:44:25.941Z,39.33
2019-03-23T14:46:54.230Z,39.47
2019-03-23T14:49:22.614Z,39.67
2019-03-23T14:51:50.922Z,36.57
2019-03-23T14:54:19.235Z,38.27
2019-03-23T14:56:47.525Z,38.03
2019-03-23T14:59:15.836Z,38.40
2019-03-23T15:01:44.385Z,37.50
2019-03-23T15:04:12.699Z,36.77
2019-03-23T15:06:40.990Z,37.63
2019-03-23T15:09:09.370Z,37.63
2019-03-23T15:11:37.660Z,36.03
2019-03-23T15:14:06.050Z,37.00
2019-03-23T15:16:34.595Z,35.87
2019-03-23T15:19:03.155Z,35.47
2019-03-23T15:21:31.448Z,37.13
2019-03-23T15:23:59.751Z,35.83
2019-03-23T15:26:28.044Z,35.50
2019-03-23T15:28:56.354Z,37.40
2019-03-23T15:31:24.899Z,35.93
2019-03-23T15:33:53.203Z,35.67
2019-03-23T15:36:21.502Z,35.73
2019-03-23T15:38:49.801Z,36.40
2019-03-23T15:41:19.011Z,36.33
2019-03-23T15:43:47.325Z,37.97
2019-03-23T15:46:15.594Z,45.80
2019-03-23T15:48:44.291Z,36.70
2019-03-23T15:51:12.579Z,36.07
2019-03-23T15:53:41.152Z,36.13
2019-03-23T15:56:09.460Z,38.30
2019-03-23T15:58:37.746Z,38.83
2019-03-23T16:01:06.400Z,39.70
2019-03-23T16:03:34.704Z,37.47
2019-03-23T16:06:03.009Z,37.63
2019-03-23T16:08:31.630Z,47.83
2019-03-23T16:10:59.943Z,38.33
2019-03-23T16:13:28.243Z,37.17
2019-03-23T16:15:56.545Z,37.80
2019-03-23T16:18:24.838Z,83.33
2019-03-23T16:20:53.226Z,39.70
2019-03-23T16:23:21.521Z,38.50
2019-03-23T16:25:49.830Z,37.00
2019-03-23T16:28:18.127Z,37.67
2019-03-23T16:30:46.477Z,39.10
2019-03-23T16:33:15.021Z,38.13
2019-03-23T16:35:43.598Z,38.00
2019-03-23T16:38:11.885Z,50.03
2019-03-23T16:40:40.199Z,37.50
2019-03-23T16:43:08.490Z,39.20
2019-03-23T16:45:36.779Z,38.73
2019-03-23T16:48:05.148Z,37.63
2019-03-23T16:50:33.440Z,38.13
2019-03-23T16:53:02.155Z,42.57
2019-03-23T16:55:30.449Z,39.40
2019-03-23T16:57:58.800Z,45.70
2019-03-23T17:00:37.938Z,38.33
2019-03-23T17:03:06.410Z,41.63
2019-03-23T17:05:36.350Z,40.10
2019-03-23T17:08:04.955Z,38.40
2019-03-23T17:10:33.264Z,41.43
2019-03-23T17:13:01.560Z,39.00
2019-03-23T17:15:29.846Z,40.37
2019-03-23T17:17:58.161Z,40.83
2019-03-23T17:20:26.802Z,39.70
2019-03-23T17:22:55.105Z,41.00
2019-03-23T17:25:23.407Z,40.47
2019-03-23T17:27:51.722Z,42.70
2019-03-23T17:30:20.268Z,39.53
2019-03-23T17:32:48.585Z,39.23
2019-03-23T17:35:16.879Z,38.57
2019-03-23T17:37:45.186Z,38.33
2019-03-23T17:40:13.798Z,39.33
2019-03-23T17:42:42.122Z,38.93
2019-03-23T17:45:10.679Z,40.27
2019-03-23T17:47:38.995Z,40.60
2019-03-23T17:50:07.349Z,40.87
2019-03-23T17:52:35.657Z,41.17
2019-03-23T17:55:05.891Z,41.37
2019-03-23T17:57:34.449Z,40.73
2019-03-23T18:00:04.824Z,40.70
2019-03-23T18:02:33.194Z,41.13
2019-03-23T18:05:01.919Z,41.13
2019-03-23T18:07:30.469Z,41.00
2019-03-23T18:09:58.776Z,40.23
2019-03-23T18:12:27.082Z,42.27
2019-03-23T18:14:55.363Z,41.53
2019-03-23T18:17:23.926Z,41.60
2019-03-23T18:19:52.290Z,41.77
2019-03-23T18:22:20.593Z,41.27
2019-03-23T18:24:48.890Z,42.20
2019-03-23T18:27:17.475Z,41.50
2019-03-23T18:29:47.476Z,43.80
2019-03-23T18:32:15.939Z,41.60
2019-03-23T18:34:44.220Z,41.70
2019-03-23T18:37:12.546Z,40.90
2019-03-23T18:39:40.830Z,40.90
2019-03-23T18:42:09.140Z,41.13
2019-03-23T18:44:45.167Z,41.40
2019-03-23T18:47:13.727Z,41.70
2019-03-23T18:49:42.284Z,40.20
2019-03-23T18:52:10.595Z,40.70
2019-03-23T18:54:38.885Z,40.33
2019-03-23T18:57:07.515Z,40.20
2019-03-23T18:59:36.078Z,39.03
2019-03-23T19:02:04.631Z,39.87
2019-03-23T19:04:32.939Z,40.60
2019-03-23T19:07:01.252Z,40.97
2019-03-23T19:09:29.804Z,41.27
2019-03-23T19:11:58.118Z,41.70
2019-03-23T19:14:26.419Z,41.50
2019-03-23T19:16:54.729Z,42.63
2019-03-23T19:19:23.019Z,41.20
2019-03-23T19:21:51.579Z,41.90
2019-03-23T19:24:19.873Z,39.63
2019-03-23T19:26:48.261Z,42.23
2019-03-23T19:29:16.548Z,39.67
2019-03-23T19:31:44.859Z,41.13
2019-03-23T19:34:13.149Z,40.50
2019-03-23T19:36:41.698Z,41.40
2019-03-23T19:39:10.061Z,40.63
2019-03-23T19:41:38.359Z,55.70
2019-03-23T19:44:06.651Z,43.60
2019-03-23T19:46:34.959Z,65.90
2019-03-23T19:49:09.502Z,42.83
2019-03-23T19:51:38.038Z,40.40
2019-03-23T19:54:06.329Z,42.30
2019-03-23T19:56:35.059Z,42.80
2019-03-23T19:59:03.347Z,42.13
2019-03-23T20:01:31.670Z,42.37
2019-03-23T20:04:00.291Z,41.23
2019-03-23T20:06:28.615Z,40.40
2019-03-23T20:08:57.004Z,40.87
2019-03-23T20:11:25.315Z,41.27
2019-03-23T20:13:58.793Z,42.30
2019-03-23T20:16:23.933Z,42.50
2019-03-23T20:18:52.231Z,40.90
2019-03-23T20:21:27.156Z,42.60
2019-03-23T20:23:55.522Z,40.37
2019-03-23T20:26:23.812Z,42.47
2019-03-23T20:28:52.123Z,41.43
2019-03-23T20:31:20.487Z,41.57
2019-03-23T20:33:48.812Z,39.70
2019-03-23T20:36:17.111Z,41.57
2019-03-23T20:38:45.418Z,41.83
2019-03-23T20:41:13.703Z,41.63
2019-03-23T20:43:42.021Z,42.43
2019-03-23T20:46:12.977Z,43.33
2019-03-23T20:48:41.363Z,42.17
2019-03-23T20:51:09.727Z,40.97
2019-03-23T20:53:38.110Z,40.60
2019-03-23T20:56:06.398Z,42.87
2019-03-23T20:58:34.995Z,42.70
2019-03-23T21:01:03.560Z,40.33
2019-03-23T21:03:31.873Z,42.93
2019-03-23T21:06:00.175Z,39.57
2019-03-23T21:08:28.562Z,40.67
2019-03-23T21:10:56.845Z,42.30
2019-03-23T21:13:25.149Z,42.20
2019-03-23T21:15:53.447Z,41.63
2019-03-23T21:18:22.099Z,41.40
2019-03-23T21:20:50.406Z,39.70
2019-03-23T21:23:18.706Z,42.33
2019-03-23T21:25:47.007Z,41.37
2019-03-23T21:28:15.553Z,40.77
2019-03-23T21:30:43.841Z,41.23
2019-03-23T21:33:12.145Z,40.87
2019-03-23T21:35:40.436Z,43.33
2019-03-23T21:38:08.747Z,43.07
2019-03-23T21:40:37.306Z,41.83
2019-03-23T21:43:05.688Z,41.93
2019-03-23T21:45:34.271Z,42.27
2019-03-23T21:48:02.851Z,41.97
2019-03-23T21:50:31.154Z,41.67
2019-03-23T21:52:59.460Z,42.00
2019-03-23T21:55:27.819Z,42.67
2019-03-23T21:57:56.403Z,42.97
2019-03-23T22:00:29.778Z,43.33
2019-03-23T22:02:58.080Z,41.10
2019-03-23T22:05:26.376Z,42.30
2019-03-23T22:07:54.690Z,40.87
2019-03-23T22:10:22.988Z,41.17
2019-03-23T22:12:51.293Z,40.50
2019-03-23T22:15:19.591Z,40.10
2019-03-23T22:17:47.891Z,41.40
2019-03-23T22:20:16.257Z,41.60
2019-03-23T22:22:44.871Z,40.63
2019-03-23T22:25:13.556Z,43.20
2019-03-23T22:27:41.863Z,42.90
2019-03-23T22:30:12.681Z,42.30
2019-03-23T22:32:40.979Z,40.80
2019-03-23T22:35:09.632Z,42.67
2019-03-23T22:37:37.948Z,43.97
2019-03-23T22:40:11.410Z,43.40
2019-03-23T22:42:39.718Z,42.50
2019-03-23T22:45:09.041Z,44.37
2019-03-23T22:47:37.434Z,41.20
2019-03-23T22:50:07.278Z,43.37
2019-03-23T22:52:35.958Z,42.70
2019-03-23T22:55:06.362Z,42.63
2019-03-23T22:57:34.668Z,42.20
2019-03-23T23:00:02.956Z,42.73
2019-03-23T23:02:31.329Z,44.77
2019-03-23T23:04:59.693Z,42.33
2019-03-23T23:07:28.002Z,43.10
2019-03-23T23:09:56.367Z,41.13
2019-03-23T23:12:24.654Z,41.17
2019-03-23T23:15:03.796Z,39.83
2019-03-23T23:17:22.985Z,41.20
2019-03-23T23:19:51.365Z,41.87
2019-03-23T23:22:20.009Z,40.10
2019-03-23T23:24:48.314Z,40.40
2019-03-23T23:27:16.607Z,41.83
2019-03-23T23:29:44.911Z,40.93
2019-03-23T23:32:13.205Z,40.53
2019-03-23T23:34:41.892Z,41.73
2019-03-23T23:37:10.428Z,40.70
2019-03-23T23:39:38.737Z,39.73
2019-03-23T23:42:07.174Z,39.80
2019-03-23T23:44:37.005Z,40.20
2019-03-23T23:47:05.531Z,41.83
2019-03-23T23:49:33.839Z,40.33
2019-03-23T23:52:02.142Z,39.77
2019-03-23T23:54:30.452Z,41.87
2019-03-23T23:56:58.740Z,40.80
2019-03-23T23:59:27.876Z,41.17
